sensor_id;sensor_type;location;lat;lon;timestamp;P1;durP1;ratioP1;P2;durP2;ratioP2
14770;SDS011;7477;45.222;5.688;2022-10-26T00:01:16;5.15;;;2.60;;
14770;SDS011;7477;45.222;5.688;2022-10-26T00:04:35;5.47;;;2.50;;
14770;SDS011;7477;45.222;5.688;2022-10-26T00:07:54;4.45;;;2.38;;
14770;SDS011;7477;45.222;5.688;2022-10-26T00:11:13;5.82;;;2.28;;
14770;SDS011;7477;45.222;5.688;2022-10-26T00:14:33;4.93;;;2.80;;
14770;SDS011;7477;45.222;5.688;2022-10-26T00:17:53;3.13;;;2.60;;
14770;SDS011;7477;45.222;5.688;2022-10-26T00:21:13;6.85;;;2.67;;
14770;SDS011;7477;45.222;5.688;2022-10-26T00:24:32;5.22;;;2.83;;
14770;SDS011;7477;45.222;5.688;2022-10-26T00:27:51;4.93;;;2.53;;
14770;SDS011;7477;45.222;5.688;2022-10-26T00:31:11;6.55;;;2.63;;
14770;SDS011;7477;45.222;5.688;2022-10-26T00:34:32;5.93;;;2.72;;
14770;SDS011;7477;45.222;5.688;2022-10-26T00:37:55;8.95;;;2.83;;
14770;SDS011;7477;45.222;5.688;2022-10-26T00:41:15;8.27;;;2.67;;
14770;SDS011;7477;45.222;5.688;2022-10-26T00:48:05;7.95;;;3.08;;
14770;SDS011;7477;45.222;5.688;2022-10-26T00:51:31;6.10;;;2.63;;
14770;SDS011;7477;45.222;5.688;2022-10-26T00:54:53;4.85;;;2.60;;
14770;SDS011;7477;45.222;5.688;2022-10-26T00:58:13;4.80;;;2.83;;
14770;SDS011;7477;45.222;5.688;2022-10-26T01:01:33;5.45;;;3.25;;
14770;SDS011;7477;45.222;5.688;2022-10-26T01:04:55;5.75;;;3.03;;
14770;SDS011;7477;45.222;5.688;2022-10-26T01:08:15;6.55;;;4.18;;
14770;SDS011;7477;45.222;5.688;2022-10-26T01:11:36;10.98;;;4.80;;
14770;SDS011;7477;45.222;5.688;2022-10-26T01:14:55;6.95;;;4.50;;
14770;SDS011;7477;45.222;5.688;2022-10-26T01:25:32;11.90;;;5.40;;
14770;SDS011;7477;45.222;5.688;2022-10-26T01:36:31;17.23;;;7.20;;
14770;SDS011;7477;45.222;5.688;2022-10-26T01:40:00;17.02;;;7.00;;
14770;SDS011;7477;45.222;5.688;2022-10-26T01:43:27;17.40;;;7.32;;
14770;SDS011;7477;45.222;5.688;2022-10-26T01:46:52;12.23;;;6.90;;
14770;SDS011;7477;45.222;5.688;2022-10-26T01:50:13;12.75;;;6.93;;
14770;SDS011;7477;45.222;5.688;2022-10-26T01:53:35;19.27;;;7.55;;
14770;SDS011;7477;45.222;5.688;2022-10-26T01:57:00;12.93;;;6.47;;
14770;SDS011;7477;45.222;5.688;2022-10-26T02:00:21;18.70;;;7.13;;
14770;SDS011;7477;45.222;5.688;2022-10-26T02:03:44;12.57;;;7.15;;
14770;SDS011;7477;45.222;5.688;2022-10-26T02:11:27;21.30;;;6.82;;
14770;SDS011;7477;45.222;5.688;2022-10-26T02:15:06;17.58;;;7.10;;
14770;SDS011;7477;45.222;5.688;2022-10-26T02:18:32;12.23;;;6.60;;
14770;SDS011;7477;45.222;5.688;2022-10-26T02:21:56;16.30;;;7.80;;
14770;SDS011;7477;45.222;5.688;2022-10-26T02:25:25;14.90;;;7.38;;
14770;SDS011;7477;45.222;5.688;2022-10-26T02:28:48;26.05;;;7.20;;
14770;SDS011;7477;45.222;5.688;2022-10-26T02:32:12;23.10;;;8.20;;
14770;SDS011;7477;45.222;5.688;2022-10-26T02:35:34;22.30;;;7.68;;
14770;SDS011;7477;45.222;5.688;2022-10-26T02:38:56;11.98;;;6.50;;
14770;SDS011;7477;45.222;5.688;2022-10-26T02:42:16;14.80;;;7.28;;
14770;SDS011;7477;45.222;5.688;2022-10-26T02:45:38;17.88;;;6.45;;
14770;SDS011;7477;45.222;5.688;2022-10-26T02:49:01;12.95;;;5.47;;
14770;SDS011;7477;45.222;5.688;2022-10-26T02:52:22;15.27;;;5.90;;
14770;SDS011;7477;45.222;5.688;2022-10-26T02:55:58;11.55;;;5.95;;
14770;SDS011;7477;45.222;5.688;2022-10-26T02:59:25;9.60;;;3.40;;
14770;SDS011;7477;45.222;5.688;2022-10-26T03:02:50;9.38;;;4.30;;
14770;SDS011;7477;45.222;5.688;2022-10-26T03:06:18;7.68;;;3.80;;
14770;SDS011;7477;45.222;5.688;2022-10-26T03:09:39;5.65;;;3.08;;
14770;SDS011;7477;45.222;5.688;2022-10-26T03:12:58;11.05;;;2.78;;
14770;SDS011;7477;45.222;5.688;2022-10-26T03:16:17;7.43;;;3.00;;
14770;SDS011;7477;45.222;5.688;2022-10-26T03:19:36;7.93;;;2.83;;
14770;SDS011;7477;45.222;5.688;2022-10-26T03:22:55;5.00;;;2.63;;
14770;SDS011;7477;45.222;5.688;2022-10-26T03:26:14;8.52;;;2.35;;
14770;SDS011;7477;45.222;5.688;2022-10-26T03:29:33;5.50;;;2.42;;
14770;SDS011;7477;45.222;5.688;2022-10-26T03:32:53;6.00;;;2.90;;
14770;SDS011;7477;45.222;5.688;2022-10-26T03:36:12;6.97;;;2.78;;
14770;SDS011;7477;45.222;5.688;2022-10-26T03:39:31;6.93;;;2.42;;
14770;SDS011;7477;45.222;5.688;2022-10-26T03:42:50;4.00;;;2.40;;
14770;SDS011;7477;45.222;5.688;2022-10-26T03:46:10;4.63;;;2.30;;
14770;SDS011;7477;45.222;5.688;2022-10-26T03:49:29;6.05;;;2.55;;
14770;SDS011;7477;45.222;5.688;2022-10-26T03:52:49;4.90;;;2.25;;
14770;SDS011;7477;45.222;5.688;2022-10-26T03:56:08;9.93;;;3.03;;
14770;SDS011;7477;45.222;5.688;2022-10-26T03:59:28;6.65;;;2.83;;
14770;SDS011;7477;45.222;5.688;2022-10-26T04:02:52;6.35;;;2.47;;
14770;SDS011;7477;45.222;5.688;2022-10-26T04:06:16;7.18;;;3.28;;
14770;SDS011;7477;45.222;5.688;2022-10-26T04:09:35;6.50;;;2.35;;
14770;SDS011;7477;45.222;5.688;2022-10-26T04:12:54;5.80;;;3.17;;
14770;SDS011;7477;45.222;5.688;2022-10-26T04:16:14;5.47;;;2.75;;
14770;SDS011;7477;45.222;5.688;2022-10-26T04:19:33;4.65;;;2.72;;
14770;SDS011;7477;45.222;5.688;2022-10-26T04:22:59;7.85;;;2.90;;
14770;SDS011;7477;45.222;5.688;2022-10-26T04:26:20;9.02;;;3.22;;
14770;SDS011;7477;45.222;5.688;2022-10-26T04:29:40;7.35;;;3.10;;
14770;SDS011;7477;45.222;5.688;2022-10-26T04:32:59;6.88;;;3.00;;
14770;SDS011;7477;45.222;5.688;2022-10-26T04:36:18;5.65;;;2.95;;
14770;SDS011;7477;45.222;5.688;2022-10-26T04:39:38;3.92;;;2.70;;
14770;SDS011;7477;45.222;5.688;2022-10-26T04:42:57;7.80;;;2.92;;
14770;SDS011;7477;45.222;5.688;2022-10-26T04:46:16;4.60;;;2.95;;
14770;SDS011;7477;45.222;5.688;2022-10-26T04:49:36;6.13;;;2.75;;
14770;SDS011;7477;45.222;5.688;2022-10-26T04:52:55;6.93;;;2.97;;
14770;SDS011;7477;45.222;5.688;2022-10-26T04:56:15;4.85;;;2.85;;
14770;SDS011;7477;45.222;5.688;2022-10-26T04:59:34;6.80;;;3.05;;
14770;SDS011;7477;45.222;5.688;2022-10-26T05:03:00;4.63;;;2.92;;
14770;SDS011;7477;45.222;5.688;2022-10-26T05:06:20;4.72;;;2.72;;
14770;SDS011;7477;45.222;5.688;2022-10-26T05:09:39;7.55;;;2.70;;
14770;SDS011;7477;45.222;5.688;2022-10-26T05:12:59;5.80;;;3.28;;
14770;SDS011;7477;45.222;5.688;2022-10-26T05:16:19;5.88;;;3.03;;
14770;SDS011;7477;45.222;5.688;2022-10-26T05:19:39;3.65;;;2.70;;
14770;SDS011;7477;45.222;5.688;2022-10-26T05:22:59;6.68;;;3.08;;
14770;SDS011;7477;45.222;5.688;2022-10-26T05:26:20;4.78;;;3.25;;
14770;SDS011;7477;45.222;5.688;2022-10-26T05:29:41;7.65;;;3.58;;
14770;SDS011;7477;45.222;5.688;2022-10-26T05:33:00;7.63;;;3.33;;
14770;SDS011;7477;45.222;5.688;2022-10-26T05:36:20;5.82;;;4.38;;
14770;SDS011;7477;45.222;5.688;2022-10-26T05:39:40;12.20;;;3.75;;
14770;SDS011;7477;45.222;5.688;2022-10-26T05:43:01;5.82;;;3.35;;
14770;SDS011;7477;45.222;5.688;2022-10-26T05:46:21;5.88;;;3.42;;
14770;SDS011;7477;45.222;5.688;2022-10-26T05:49:40;12.07;;;3.13;;
14770;SDS011;7477;45.222;5.688;2022-10-26T05:52:59;10.95;;;3.80;;
14770;SDS011;7477;45.222;5.688;2022-10-26T05:56:19;4.80;;;3.58;;
14770;SDS011;7477;45.222;5.688;2022-10-26T05:59:51;6.65;;;3.78;;
14770;SDS011;7477;45.222;5.688;2022-10-26T06:03:33;5.15;;;3.30;;
14770;SDS011;7477;45.222;5.688;2022-10-26T06:07:00;4.85;;;3.13;;
14770;SDS011;7477;45.222;5.688;2022-10-26T06:10:20;10.82;;;3.38;;
14770;SDS011;7477;45.222;5.688;2022-10-26T06:13:39;8.05;;;3.40;;
14770;SDS011;7477;45.222;5.688;2022-10-26T06:31:26;7.63;;;3.40;;
14770;SDS011;7477;45.222;5.688;2022-10-26T06:34:46;10.18;;;4.25;;
14770;SDS011;7477;45.222;5.688;2022-10-26T06:38:16;17.17;;;4.18;;
14770;SDS011;7477;45.222;5.688;2022-10-26T06:41:37;7.72;;;3.83;;
14770;SDS011;7477;45.222;5.688;2022-10-26T06:44:57;11.90;;;3.83;;
14770;SDS011;7477;45.222;5.688;2022-10-26T06:48:18;10.20;;;3.70;;
14770;SDS011;7477;45.222;5.688;2022-10-26T06:51:46;10.32;;;4.28;;
14770;SDS011;7477;45.222;5.688;2022-10-26T06:55:14;7.28;;;3.88;;
14770;SDS011;7477;45.222;5.688;2022-10-26T06:58:34;5.40;;;4.00;;
14770;SDS011;7477;45.222;5.688;2022-10-26T07:01:55;11.30;;;3.42;;
14770;SDS011;7477;45.222;5.688;2022-10-26T07:05:14;7.20;;;3.78;;
14770;SDS011;7477;45.222;5.688;2022-10-26T07:08:33;13.48;;;4.15;;
14770;SDS011;7477;45.222;5.688;2022-10-26T07:11:52;10.18;;;4.43;;
14770;SDS011;7477;45.222;5.688;2022-10-26T07:15:11;7.90;;;3.83;;
14770;SDS011;7477;45.222;5.688;2022-10-26T07:18:31;13.88;;;4.80;;
14770;SDS011;7477;45.222;5.688;2022-10-26T07:21:50;8.55;;;4.50;;
14770;SDS011;7477;45.222;5.688;2022-10-26T07:25:09;11.68;;;4.70;;
14770;SDS011;7477;45.222;5.688;2022-10-26T07:28:30;9.85;;;4.32;;
14770;SDS011;7477;45.222;5.688;2022-10-26T07:31:49;8.55;;;4.57;;
14770;SDS011;7477;45.222;5.688;2022-10-26T07:35:09;10.63;;;4.30;;
14770;SDS011;7477;45.222;5.688;2022-10-26T07:38:28;10.65;;;5.22;;
14770;SDS011;7477;45.222;5.688;2022-10-26T07:41:47;12.18;;;5.07;;
14770;SDS011;7477;45.222;5.688;2022-10-26T07:45:06;8.57;;;4.90;;
14770;SDS011;7477;45.222;5.688;2022-10-26T07:48:26;14.70;;;4.85;;
14770;SDS011;7477;45.222;5.688;2022-10-26T07:51:45;11.55;;;5.38;;
14770;SDS011;7477;45.222;5.688;2022-10-26T07:55:05;13.52;;;5.10;;
14770;SDS011;7477;45.222;5.688;2022-10-26T07:58:26;8.32;;;4.53;;
14770;SDS011;7477;45.222;5.688;2022-10-26T08:01:46;12.93;;;5.10;;
14770;SDS011;7477;45.222;5.688;2022-10-26T08:05:05;12.60;;;4.80;;
14770;SDS011;7477;45.222;5.688;2022-10-26T08:08:24;6.03;;;4.00;;
14770;SDS011;7477;45.222;5.688;2022-10-26T08:11:44;14.35;;;4.95;;
14770;SDS011;7477;45.222;5.688;2022-10-26T08:15:04;12.35;;;4.80;;
14770;SDS011;7477;45.222;5.688;2022-10-26T08:18:24;10.10;;;4.50;;
14770;SDS011;7477;45.222;5.688;2022-10-26T08:21:43;13.75;;;4.55;;
14770;SDS011;7477;45.222;5.688;2022-10-26T08:25:03;8.68;;;4.70;;
14770;SDS011;7477;45.222;5.688;2022-10-26T08:28:22;16.38;;;4.78;;
14770;SDS011;7477;45.222;5.688;2022-10-26T08:31:41;11.18;;;4.88;;
14770;SDS011;7477;45.222;5.688;2022-10-26T08:35:01;11.32;;;5.32;;
14770;SDS011;7477;45.222;5.688;2022-10-26T08:38:20;9.60;;;4.45;;
14770;SDS011;7477;45.222;5.688;2022-10-26T08:41:46;9.05;;;4.18;;
14770;SDS011;7477;45.222;5.688;2022-10-26T08:45:23;9.68;;;4.65;;
14770;SDS011;7477;45.222;5.688;2022-10-26T08:48:49;10.07;;;4.47;;
14770;SDS011;7477;45.222;5.688;2022-10-26T08:52:18;9.25;;;4.32;;
14770;SDS011;7477;45.222;5.688;2022-10-26T08:55:43;11.88;;;4.43;;
14770;SDS011;7477;45.222;5.688;2022-10-26T08:59:11;8.75;;;4.30;;
14770;SDS011;7477;45.222;5.688;2022-10-26T09:02:35;10.20;;;4.55;;
14770;SDS011;7477;45.222;5.688;2022-10-26T09:09:29;11.70;;;4.20;;
14770;SDS011;7477;45.222;5.688;2022-10-26T09:16:46;8.48;;;4.07;;
14770;SDS011;7477;45.222;5.688;2022-10-26T09:27:40;11.45;;;4.18;;
14770;SDS011;7477;45.222;5.688;2022-10-26T09:31:03;10.48;;;3.95;;
14770;SDS011;7477;45.222;5.688;2022-10-26T09:34:31;7.05;;;3.88;;
14770;SDS011;7477;45.222;5.688;2022-10-26T09:41:25;13.50;;;4.18;;
14770;SDS011;7477;45.222;5.688;2022-10-26T09:44:49;5.85;;;3.08;;
14770;SDS011;7477;45.222;5.688;2022-10-26T09:48:24;6.30;;;3.67;;
14770;SDS011;7477;45.222;5.688;2022-10-26T09:51:54;9.55;;;4.30;;
14770;SDS011;7477;45.222;5.688;2022-10-26T09:55:13;4.60;;;3.15;;
14770;SDS011;7477;45.222;5.688;2022-10-26T09:58:43;4.60;;;2.90;;
14770;SDS011;7477;45.222;5.688;2022-10-26T10:05:53;9.57;;;3.03;;
14770;SDS011;7477;45.222;5.688;2022-10-26T10:09:33;7.05;;;3.35;;
14770;SDS011;7477;45.222;5.688;2022-10-26T10:12:53;6.45;;;3.13;;
14770;SDS011;7477;45.222;5.688;2022-10-26T10:16:18;10.30;;;3.58;;
14770;SDS011;7477;45.222;5.688;2022-10-26T10:19:39;5.70;;;2.55;;
14770;SDS011;7477;45.222;5.688;2022-10-26T10:23:00;2.92;;;2.22;;
14770;SDS011;7477;45.222;5.688;2022-10-26T10:26:24;5.10;;;3.05;;
14770;SDS011;7477;45.222;5.688;2022-10-26T10:29:44;4.75;;;2.58;;
14770;SDS011;7477;45.222;5.688;2022-10-26T10:33:11;3.75;;;2.90;;
14770;SDS011;7477;45.222;5.688;2022-10-26T10:36:30;13.55;;;4.28;;
14770;SDS011;7477;45.222;5.688;2022-10-26T10:39:55;5.20;;;3.10;;
14770;SDS011;7477;45.222;5.688;2022-10-26T10:43:19;3.17;;;2.40;;
14770;SDS011;7477;45.222;5.688;2022-10-26T10:46:39;4.00;;;2.80;;
14770;SDS011;7477;45.222;5.688;2022-10-26T10:50:31;4.03;;;2.42;;
14770;SDS011;7477;45.222;5.688;2022-10-26T10:53:51;13.30;;;4.22;;
14770;SDS011;7477;45.222;5.688;2022-10-26T11:00:42;4.93;;;3.15;;
14770;SDS011;7477;45.222;5.688;2022-10-26T11:11:26;3.53;;;2.67;;
14770;SDS011;7477;45.222;5.688;2022-10-26T11:14:53;3.28;;;2.80;;
14770;SDS011;7477;45.222;5.688;2022-10-26T11:18:40;5.38;;;2.95;;
14770;SDS011;7477;45.222;5.688;2022-10-26T11:22:04;5.57;;;2.80;;
14770;SDS011;7477;45.222;5.688;2022-10-26T11:25:33;5.10;;;2.85;;
14770;SDS011;7477;45.222;5.688;2022-10-26T11:28:58;4.68;;;2.95;;
14770;SDS011;7477;45.222;5.688;2022-10-26T11:32:24;7.85;;;3.55;;
14770;SDS011;7477;45.222;5.688;2022-10-26T11:35:55;6.95;;;3.58;;
14770;SDS011;7477;45.222;5.688;2022-10-26T11:43:04;10.50;;;3.55;;
14770;SDS011;7477;45.222;5.688;2022-10-26T11:46:36;6.57;;;3.67;;
14770;SDS011;7477;45.222;5.688;2022-10-26T11:50:22;6.40;;;3.05;;
14770;SDS011;7477;45.222;5.688;2022-10-26T11:53:47;4.95;;;3.15;;
14770;SDS011;7477;45.222;5.688;2022-10-26T11:57:08;7.45;;;2.92;;
14770;SDS011;7477;45.222;5.688;2022-10-26T12:00:28;7.13;;;3.47;;
14770;SDS011;7477;45.222;5.688;2022-10-26T12:03:49;3.75;;;2.65;;
14770;SDS011;7477;45.222;5.688;2022-10-26T12:07:16;8.50;;;3.17;;
14770;SDS011;7477;45.222;5.688;2022-10-26T12:10:42;4.00;;;2.60;;
14770;SDS011;7477;45.222;5.688;2022-10-26T12:14:23;2.95;;;2.65;;
14770;SDS011;7477;45.222;5.688;2022-10-26T12:17:51;3.15;;;2.60;;
14770;SDS011;7477;45.222;5.688;2022-10-26T12:21:20;5.32;;;3.85;;
14770;SDS011;7477;45.222;5.688;2022-10-26T12:24:44;5.55;;;3.03;;
14770;SDS011;7477;45.222;5.688;2022-10-26T12:28:04;5.18;;;2.70;;
14770;SDS011;7477;45.222;5.688;2022-10-26T12:31:44;3.97;;;2.85;;
14770;SDS011;7477;45.222;5.688;2022-10-26T12:35:28;3.63;;;2.58;;
14770;SDS011;7477;45.222;5.688;2022-10-26T12:38:56;7.22;;;2.70;;
14770;SDS011;7477;45.222;5.688;2022-10-26T12:45:35;7.40;;;3.42;;
14770;SDS011;7477;45.222;5.688;2022-10-26T12:48:54;12.48;;;3.95;;
14770;SDS011;7477;45.222;5.688;2022-10-26T12:52:19;7.88;;;3.47;;
14770;SDS011;7477;45.222;5.688;2022-10-26T12:55:45;2.90;;;2.60;;
14770;SDS011;7477;45.222;5.688;2022-10-26T13:13:18;12.52;;;4.72;;
14770;SDS011;7477;45.222;5.688;2022-10-26T13:16:42;8.10;;;3.05;;
14770;SDS011;7477;45.222;5.688;2022-10-26T13:20:04;19.58;;;4.68;;
14770;SDS011;7477;45.222;5.688;2022-10-26T13:23:25;6.13;;;3.65;;
14770;SDS011;7477;45.222;5.688;2022-10-26T13:33:50;14.43;;;4.07;;
14770;SDS011;7477;45.222;5.688;2022-10-26T13:37:23;14.27;;;5.20;;
14770;SDS011;7477;45.222;5.688;2022-10-26T13:40:45;12.38;;;4.28;;
14770;SDS011;7477;45.222;5.688;2022-10-26T13:44:05;12.32;;;4.13;;
14770;SDS011;7477;45.222;5.688;2022-10-26T13:47:34;8.73;;;3.83;;
14770;SDS011;7477;45.222;5.688;2022-10-26T13:50:59;7.03;;;3.47;;
14770;SDS011;7477;45.222;5.688;2022-10-26T13:54:35;15.27;;;4.10;;
14770;SDS011;7477;45.222;5.688;2022-10-26T14:01:43;10.10;;;4.15;;
14770;SDS011;7477;45.222;5.688;2022-10-26T14:05:03;12.30;;;4.43;;
14770;SDS011;7477;45.222;5.688;2022-10-26T14:08:23;5.22;;;3.13;;
14770;SDS011;7477;45.222;5.688;2022-10-26T14:11:45;4.78;;;3.08;;
14770;SDS011;7477;45.222;5.688;2022-10-26T14:15:18;11.85;;;3.80;;
14770;SDS011;7477;45.222;5.688;2022-10-26T14:18:46;11.23;;;4.40;;
14770;SDS011;7477;45.222;5.688;2022-10-26T14:22:07;13.00;;;4.00;;
14770;SDS011;7477;45.222;5.688;2022-10-26T14:25:27;17.67;;;4.13;;
14770;SDS011;7477;45.222;5.688;2022-10-26T14:28:50;15.48;;;4.47;;
14770;SDS011;7477;45.222;5.688;2022-10-26T14:32:19;6.22;;;3.20;;
14770;SDS011;7477;45.222;5.688;2022-10-26T14:35:39;3.97;;;2.80;;
14770;SDS011;7477;45.222;5.688;2022-10-26T14:39:04;5.07;;;2.97;;
14770;SDS011;7477;45.222;5.688;2022-10-26T14:42:34;3.78;;;2.58;;
14770;SDS011;7477;45.222;5.688;2022-10-26T14:45:58;5.63;;;3.05;;
14770;SDS011;7477;45.222;5.688;2022-10-26T14:49:22;5.35;;;3.47;;
14770;SDS011;7477;45.222;5.688;2022-10-26T14:52:48;7.50;;;3.20;;
14770;SDS011;7477;45.222;5.688;2022-10-26T14:59:40;8.85;;;3.17;;
14770;SDS011;7477;45.222;5.688;2022-10-26T15:03:00;6.47;;;3.33;;
14770;SDS011;7477;45.222;5.688;2022-10-26T15:06:33;4.47;;;2.92;;
14770;SDS011;7477;45.222;5.688;2022-10-26T15:09:58;5.40;;;2.97;;
14770;SDS011;7477;45.222;5.688;2022-10-26T15:16:49;2.83;;;2.17;;
14770;SDS011;7477;45.222;5.688;2022-10-26T15:20:16;5.30;;;3.00;;
14770;SDS011;7477;45.222;5.688;2022-10-26T15:23:40;5.22;;;3.22;;
14770;SDS011;7477;45.222;5.688;2022-10-26T15:26:59;5.05;;;2.80;;
14770;SDS011;7477;45.222;5.688;2022-10-26T15:30:23;3.50;;;2.70;;
14770;SDS011;7477;45.222;5.688;2022-10-26T15:37:10;6.50;;;3.13;;
14770;SDS011;7477;45.222;5.688;2022-10-26T15:40:29;4.07;;;2.58;;
14770;SDS011;7477;45.222;5.688;2022-10-26T15:43:50;4.20;;;2.85;;
14770;SDS011;7477;45.222;5.688;2022-10-26T15:47:15;6.40;;;3.67;;
14770;SDS011;7477;45.222;5.688;2022-10-26T15:50:37;7.38;;;3.88;;
14770;SDS011;7477;45.222;5.688;2022-10-26T15:53:56;19.30;;;8.23;;
14770;SDS011;7477;45.222;5.688;2022-10-26T15:57:16;10.98;;;4.43;;
14770;SDS011;7477;45.222;5.688;2022-10-26T16:00:35;5.68;;;3.67;;
14770;SDS011;7477;45.222;5.688;2022-10-26T16:03:55;4.60;;;2.90;;
14770;SDS011;7477;45.222;5.688;2022-10-26T16:07:14;8.30;;;3.45;;
14770;SDS011;7477;45.222;5.688;2022-10-26T16:10:34;3.28;;;2.53;;
14770;SDS011;7477;45.222;5.688;2022-10-26T16:13:53;4.25;;;2.90;;
14770;SDS011;7477;45.222;5.688;2022-10-26T16:17:13;4.90;;;2.78;;
14770;SDS011;7477;45.222;5.688;2022-10-26T16:20:32;10.75;;;3.72;;
14770;SDS011;7477;45.222;5.688;2022-10-26T16:23:53;13.77;;;4.65;;
14770;SDS011;7477;45.222;5.688;2022-10-26T16:27:13;17.65;;;4.13;;
14770;SDS011;7477;45.222;5.688;2022-10-26T16:30:32;12.05;;;4.00;;
14770;SDS011;7477;45.222;5.688;2022-10-26T16:33:54;8.40;;;4.05;;
14770;SDS011;7477;45.222;5.688;2022-10-26T16:37:13;10.30;;;4.15;;
14770;SDS011;7477;45.222;5.688;2022-10-26T16:40:32;6.88;;;3.78;;
14770;SDS011;7477;45.222;5.688;2022-10-26T16:43:51;10.23;;;4.00;;
14770;SDS011;7477;45.222;5.688;2022-10-26T16:47:10;12.55;;;4.30;;
14770;SDS011;7477;45.222;5.688;2022-10-26T16:50:30;8.73;;;4.25;;
14770;SDS011;7477;45.222;5.688;2022-10-26T16:53:49;20.92;;;4.82;;
14770;SDS011;7477;45.222;5.688;2022-10-26T16:57:11;14.95;;;4.43;;
14770;SDS011;7477;45.222;5.688;2022-10-26T17:00:30;8.23;;;3.90;;
14770;SDS011;7477;45.222;5.688;2022-10-26T17:03:52;8.40;;;3.70;;
14770;SDS011;7477;45.222;5.688;2022-10-26T17:07:11;9.45;;;4.65;;
14770;SDS011;7477;45.222;5.688;2022-10-26T17:10:31;13.40;;;4.57;;
14770;SDS011;7477;45.222;5.688;2022-10-26T17:13:53;12.63;;;4.28;;
14770;SDS011;7477;45.222;5.688;2022-10-26T17:17:13;9.77;;;4.07;;
14770;SDS011;7477;45.222;5.688;2022-10-26T17:20:33;11.13;;;4.07;;
14770;SDS011;7477;45.222;5.688;2022-10-26T17:23:52;8.90;;;4.40;;
14770;SDS011;7477;45.222;5.688;2022-10-26T17:27:11;12.93;;;4.65;;
14770;SDS011;7477;45.222;5.688;2022-10-26T17:30:31;10.50;;;4.53;;
14770;SDS011;7477;45.222;5.688;2022-10-26T17:33:51;9.45;;;4.10;;
14770;SDS011;7477;45.222;5.688;2022-10-26T17:37:10;6.88;;;3.83;;
14770;SDS011;7477;45.222;5.688;2022-10-26T17:40:29;6.30;;;3.65;;
14770;SDS011;7477;45.222;5.688;2022-10-26T17:43:49;10.65;;;4.28;;
14770;SDS011;7477;45.222;5.688;2022-10-26T17:47:09;13.50;;;4.60;;
14770;SDS011;7477;45.222;5.688;2022-10-26T17:50:28;12.35;;;3.90;;
14770;SDS011;7477;45.222;5.688;2022-10-26T17:53:48;12.93;;;4.15;;
14770;SDS011;7477;45.222;5.688;2022-10-26T17:57:08;11.02;;;4.70;;
14770;SDS011;7477;45.222;5.688;2022-10-26T18:00:27;11.55;;;4.53;;
14770;SDS011;7477;45.222;5.688;2022-10-26T18:03:46;14.05;;;4.82;;
14770;SDS011;7477;45.222;5.688;2022-10-26T18:07:06;14.63;;;4.55;;
14770;SDS011;7477;45.222;5.688;2022-10-26T18:10:25;14.98;;;4.43;;
14770;SDS011;7477;45.222;5.688;2022-10-26T18:13:44;13.23;;;4.40;;
14770;SDS011;7477;45.222;5.688;2022-10-26T18:17:04;13.07;;;5.95;;
14770;SDS011;7477;45.222;5.688;2022-10-26T18:20:23;10.93;;;5.93;;
14770;SDS011;7477;45.222;5.688;2022-10-26T18:23:43;21.67;;;7.07;;
14770;SDS011;7477;45.222;5.688;2022-10-26T18:27:02;9.75;;;5.35;;
14770;SDS011;7477;45.222;5.688;2022-10-26T18:30:22;11.18;;;4.75;;
14770;SDS011;7477;45.222;5.688;2022-10-26T18:33:42;18.20;;;5.18;;
14770;SDS011;7477;45.222;5.688;2022-10-26T18:37:01;11.93;;;4.97;;
14770;SDS011;7477;45.222;5.688;2022-10-26T18:40:21;12.38;;;4.93;;
14770;SDS011;7477;45.222;5.688;2022-10-26T18:43:41;10.68;;;5.18;;
14770;SDS011;7477;45.222;5.688;2022-10-26T18:47:01;12.93;;;5.32;;
14770;SDS011;7477;45.222;5.688;2022-10-26T18:50:21;10.93;;;5.03;;
14770;SDS011;7477;45.222;5.688;2022-10-26T18:53:42;10.95;;;5.88;;
14770;SDS011;7477;45.222;5.688;2022-10-26T18:57:02;12.02;;;4.53;;
14770;SDS011;7477;45.222;5.688;2022-10-26T19:00:21;10.45;;;5.10;;
14770;SDS011;7477;45.222;5.688;2022-10-26T19:03:41;9.30;;;4.90;;
14770;SDS011;7477;45.222;5.688;2022-10-26T19:07:01;12.70;;;5.45;;
14770;SDS011;7477;45.222;5.688;2022-10-26T19:10:21;26.88;;;10.23;;
14770;SDS011;7477;45.222;5.688;2022-10-26T19:13:40;12.07;;;5.32;;
14770;SDS011;7477;45.222;5.688;2022-10-26T19:17:00;16.77;;;5.65;;
14770;SDS011;7477;45.222;5.688;2022-10-26T19:20:20;12.73;;;5.35;;
14770;SDS011;7477;45.222;5.688;2022-10-26T19:23:40;8.85;;;4.50;;
14770;SDS011;7477;45.222;5.688;2022-10-26T19:27:01;17.60;;;5.47;;
14770;SDS011;7477;45.222;5.688;2022-10-26T19:30:20;18.95;;;5.70;;
14770;SDS011;7477;45.222;5.688;2022-10-26T19:33:40;9.48;;;4.72;;
14770;SDS011;7477;45.222;5.688;2022-10-26T19:36:59;13.35;;;5.15;;
14770;SDS011;7477;45.222;5.688;2022-10-26T19:40:18;11.52;;;4.50;;
14770;SDS011;7477;45.222;5.688;2022-10-26T19:43:38;12.15;;;5.10;;
14770;SDS011;7477;45.222;5.688;2022-10-26T19:46:58;11.15;;;5.78;;
14770;SDS011;7477;45.222;5.688;2022-10-26T19:50:17;12.93;;;4.63;;
14770;SDS011;7477;45.222;5.688;2022-10-26T19:53:36;11.52;;;5.07;;
14770;SDS011;7477;45.222;5.688;2022-10-26T19:56:56;11.10;;;4.68;;
14770;SDS011;7477;45.222;5.688;2022-10-26T20:00:15;16.13;;;6.03;;
14770;SDS011;7477;45.222;5.688;2022-10-26T20:03:34;12.70;;;5.32;;
14770;SDS011;7477;45.222;5.688;2022-10-26T20:06:53;11.93;;;4.95;;
14770;SDS011;7477;45.222;5.688;2022-10-26T20:10:13;19.63;;;5.22;;
14770;SDS011;7477;45.222;5.688;2022-10-26T20:13:32;11.75;;;4.43;;
14770;SDS011;7477;45.222;5.688;2022-10-26T20:16:53;13.27;;;4.57;;
14770;SDS011;7477;45.222;5.688;2022-10-26T20:20:14;13.93;;;5.70;;
14770;SDS011;7477;45.222;5.688;2022-10-26T20:23:33;17.95;;;5.03;;
14770;SDS011;7477;45.222;5.688;2022-10-26T20:26:52;11.55;;;5.18;;
14770;SDS011;7477;45.222;5.688;2022-10-26T20:30:12;12.60;;;4.78;;
14770;SDS011;7477;45.222;5.688;2022-10-26T20:33:31;11.55;;;4.90;;
14770;SDS011;7477;45.222;5.688;2022-10-26T20:36:51;11.68;;;5.10;;
14770;SDS011;7477;45.222;5.688;2022-10-26T20:40:10;10.25;;;5.03;;
14770;SDS011;7477;45.222;5.688;2022-10-26T20:43:30;13.52;;;4.60;;
14770;SDS011;7477;45.222;5.688;2022-10-26T20:46:50;10.98;;;4.40;;
14770;SDS011;7477;45.222;5.688;2022-10-26T20:50:10;6.57;;;4.22;;
14770;SDS011;7477;45.222;5.688;2022-10-26T20:57:05;11.77;;;4.93;;
14770;SDS011;7477;45.222;5.688;2022-10-26T21:00:30;10.15;;;4.22;;
14770;SDS011;7477;45.222;5.688;2022-10-26T21:03:54;12.43;;;5.03;;
14770;SDS011;7477;45.222;5.688;2022-10-26T21:07:15;8.38;;;3.90;;
14770;SDS011;7477;45.222;5.688;2022-10-26T21:10:34;9.10;;;4.40;;
14770;SDS011;7477;45.222;5.688;2022-10-26T21:13:53;10.60;;;4.70;;
14770;SDS011;7477;45.222;5.688;2022-10-26T21:17:12;9.10;;;4.57;;
14770;SDS011;7477;45.222;5.688;2022-10-26T21:20:32;14.63;;;5.20;;
14770;SDS011;7477;45.222;5.688;2022-10-26T21:23:51;12.00;;;5.18;;
14770;SDS011;7477;45.222;5.688;2022-10-26T21:27:10;8.52;;;4.43;;
14770;SDS011;7477;45.222;5.688;2022-10-26T21:30:29;15.02;;;5.15;;
14770;SDS011;7477;45.222;5.688;2022-10-26T21:33:48;11.68;;;5.13;;
14770;SDS011;7477;45.222;5.688;2022-10-26T21:37:08;9.90;;;5.70;;
14770;SDS011;7477;45.222;5.688;2022-10-26T21:40:27;7.68;;;4.75;;
14770;SDS011;7477;45.222;5.688;2022-10-26T21:43:49;15.38;;;6.32;;
14770;SDS011;7477;45.222;5.688;2022-10-26T21:47:09;19.02;;;8.35;;
14770;SDS011;7477;45.222;5.688;2022-10-26T21:50:30;27.80;;;14.05;;
14770;SDS011;7477;45.222;5.688;2022-10-26T21:53:49;27.42;;;11.55;;
14770;SDS011;7477;45.222;5.688;2022-10-26T21:57:09;40.88;;;18.98;;
14770;SDS011;7477;45.222;5.688;2022-10-26T22:00:29;17.40;;;9.88;;
14770;SDS011;7477;45.222;5.688;2022-10-26T22:03:49;16.92;;;7.82;;
14770;SDS011;7477;45.222;5.688;2022-10-26T22:07:08;16.70;;;6.72;;
14770;SDS011;7477;45.222;5.688;2022-10-26T22:10:27;15.52;;;6.18;;
14770;SDS011;7477;45.222;5.688;2022-10-26T22:13:47;14.75;;;5.53;;
14770;SDS011;7477;45.222;5.688;2022-10-26T22:17:07;10.50;;;5.70;;
14770;SDS011;7477;45.222;5.688;2022-10-26T22:20:26;11.82;;;6.32;;
14770;SDS011;7477;45.222;5.688;2022-10-26T22:23:45;14.30;;;6.25;;